Time;durP1;ratioP1;P1;durP2;ratioP2;P2;SDS_P1;SDS_P2;PMS_P1;PMS_P2;Temp;Humidity;BMP_temperature;BMP_pressure;BME280_temperature;BME280_humidity;BME280_pressure;Samples;Min_cycle;Max_cycle;Signal;HPM_P1;HPM_P2
2022/07/10 00:01:24;;;;;;;3.47;2.40;;;;;;;15.12;100.00;100855.63;4975682;28;20286;-69
2022/07/10 00:03:49;;;;;;;4.57;2.50;;;;;;;15.08;100.00;100855.00;4979496;28;20180;-69
2022/07/10 00:06:16;;;;;;;6.30;2.47;;;;;;;15.08;100.00;100848.97;4974894;28;20204;-70
2022/07/10 00:08:42;;;;;;;4.47;2.30;;;;;;;14.92;100.00;100849.91;4989304;28;20190;-69
2022/07/10 00:11:08;;;;;;;3.73;2.30;;;;;;;14.91;100.00;100858.63;4973304;28;20223;-69
2022/07/10 00:13:33;;;;;;;8.20;3.03;;;;;;;14.90;100.00;100851.75;4973875;28;20751;-69
2022/07/10 00:15:59;;;;;;;5.90;2.70;;;;;;;14.84;100.00;100860.72;4974979;28;20180;-69
2022/07/10 00:18:24;;;;;;;6.47;2.23;;;;;;;14.91;100.00;100858.63;4975014;28;20184;-69
2022/07/10 00:20:49;;;;;;;7.10;2.67;;;;;;;14.72;100.00;100855.47;4964904;28;20331;-69
2022/07/10 00:23:15;;;;;;;3.60;2.10;;;;;;;14.65;100.00;100853.25;4970236;28;20188;-69
2022/07/10 00:25:40;;;;;;;6.83;2.40;;;;;;;14.63;100.00;100859.41;4969569;28;20211;-68
2022/07/10 00:28:05;;;;;;;2.80;1.93;;;;;;;14.68;100.00;100865.97;4974547;28;20192;-69
2022/07/10 00:30:30;;;;;;;8.07;2.83;;;;;;;14.67;100.00;100858.31;4967669;28;20634;-68
2022/07/10 00:32:56;;;;;;;5.17;1.67;;;;;;;14.67;100.00;100855.72;4969073;28;20572;-68
2022/07/10 00:35:21;;;;;;;5.23;2.10;;;;;;;14.75;100.00;100860.44;4966181;28;20191;-69
2022/07/10 00:37:46;;;;;;;3.13;2.20;;;;;;;14.70;100.00;100868.50;4974618;28;20188;-68
2022/07/10 00:40:12;;;;;;;3.93;2.20;;;;;;;14.68;100.00;100863.41;4965093;28;20546;-69
2022/07/10 00:42:37;;;;;;;4.93;2.23;;;;;;;14.73;100.00;100873.50;4988615;28;20259;-69
2022/07/10 00:45:03;;;;;;;3.77;1.97;;;;;;;14.82;100.00;100870.38;4974509;28;20286;-69
2022/07/10 00:47:28;;;;;;;4.07;2.20;;;;;;;14.77;100.00;100867.22;4974310;28;20266;-69
2022/07/10 00:49:53;;;;;;;3.27;2.40;;;;;;;14.75;100.00;100870.81;4973796;28;20184;-70
2022/07/10 00:52:19;;;;;;;3.53;2.47;;;;;;;14.81;100.00;100873.03;4979110;28;20693;-69
2022/07/10 00:54:47;;;;;;;4.07;2.53;;;;;;;14.81;100.00;100876.47;4974286;28;20188;-69
2022/07/10 00:57:16;;;;;;;4.80;2.40;;;;;;;14.69;100.00;100878.00;4972975;28;20558;-69
2022/07/10 00:59:42;;;;;;;5.67;2.20;;;;;;;14.64;100.00;100874.84;4972354;28;20212;-68
2022/07/10 01:02:09;;;;;;;5.87;2.37;;;;;;;14.51;100.00;100868.72;4964666;28;20230;-69
2022/07/10 01:04:34;;;;;;;5.30;2.47;;;;;;;14.55;100.00;100872.81;4973727;28;20290;-69
2022/07/10 01:07:00;;;;;;;6.10;2.67;;;;;;;14.35;100.00;100869.63;4973720;28;20618;-69
2022/07/10 01:09:25;;;;;;;3.33;2.20;;;;;;;14.36;100.00;100868.72;4973684;28;20191;-69
2022/07/10 01:11:51;;;;;;;3.23;2.00;;;;;;;14.39;100.00;100865.09;4977156;28;20223;-70
2022/07/10 01:14:16;;;;;;;4.30;2.20;;;;;;;14.33;100.00;100862.88;4975203;28;20195;-69
2022/07/10 01:16:42;;;;;;;6.83;2.10;;;;;;;14.31;100.00;100860.38;4973923;28;20549;-69
2022/07/10 01:19:08;;;;;;;4.53;2.27;;;;;;;14.32;100.00;100867.19;4973005;28;20190;-69
2022/07/10 01:21:36;;;;;;;3.30;2.40;;;;;;;14.30;100.00;100865.63;4974997;28;20230;-69
2022/07/10 01:24:09;;;;;;;5.30;2.07;;;;;;;14.23;100.00;100867.75;4976981;28;20191;-69
2022/07/10 01:26:35;;;;;;;6.87;2.30;;;;;;;14.30;100.00;100869.06;4972371;28;20203;-69
2022/07/10 01:29:06;;;;;;;4.03;2.13;;;;;;;14.34;100.00;100867.97;4973263;28;20254;-69
2022/07/10 01:31:33;;;;;;;4.43;1.73;;;;;;;14.36;100.00;100858.34;4964450;28;20665;-69
2022/07/10 01:34:00;;;;;;;4.57;2.10;;;;;;;14.37;100.00;100859.19;4968920;28;20536;-69
2022/07/10 01:36:28;;;;;;;3.27;1.97;;;;;;;14.38;100.00;100857.44;4970957;28;20172;-69
2022/07/10 01:38:54;;;;;;;2.87;1.90;;;;;;;14.42;100.00;100859.75;4972957;28;20676;-69
2022/07/10 01:41:20;;;;;;;3.57;1.80;;;;;;;14.49;100.00;100862.81;4973035;28;20242;-70
2022/07/10 01:43:45;;;;;;;4.13;1.97;;;;;;;14.53;100.00;100865.09;4969032;28;20185;-69
2022/07/10 01:46:12;;;;;;;5.07;2.00;;;;;;;14.64;100.00;100871.44;4968726;28;20670;-69
2022/07/10 01:48:38;;;;;;;3.80;1.97;;;;;;;14.52;100.00;100865.22;4966900;28;20231;-69
2022/07/10 01:51:07;;;;;;;3.67;1.90;;;;;;;14.50;100.00;100869.66;4963219;28;20238;-69
2022/07/10 01:53:32;;;;;;;4.90;1.73;;;;;;;14.44;100.00;100865.66;4972023;28;20172;-69
2022/07/10 01:56:00;;;;;;;3.20;1.80;;;;;;;14.51;100.00;100873.88;4973066;28;20658;-68
2022/07/10 01:58:25;;;;;;;3.60;1.97;;;;;;;14.44;100.00;100870.84;4972977;28;20680;-69
2022/07/10 02:00:51;;;;;;;6.07;2.97;;;;;;;14.40;100.00;100869.38;4968759;28;20242;-69
2022/07/10 02:06:00;;;;;;;4.03;2.70;;;;;;;14.35;100.00;100876.53;4972830;28;20238;-68
2022/07/10 02:08:25;;;;;;;5.60;1.80;;;;;;;14.36;100.00;100880.78;4973536;28;20188;-69
2022/07/10 02:10:51;;;;;;;3.00;1.97;;;;;;;14.49;100.00;100886.94;4968758;28;20787;-69
2022/07/10 02:13:19;;;;;;;3.57;1.90;;;;;;;14.35;100.00;100882.56;4971738;28;20250;-69
2022/07/10 02:15:45;;;;;;;6.40;2.37;;;;;;;14.46;100.00;100891.44;4972985;28;20247;-69
2022/07/10 02:18:10;;;;;;;3.90;1.87;;;;;;;14.45;100.00;100889.78;4987694;28;20639;-69
2022/07/10 02:20:36;;;;;;;4.53;2.00;;;;;;;14.34;100.00;100886.06;4966754;28;20254;-69
2022/07/10 02:23:02;;;;;;;3.53;1.77;;;;;;;14.42;100.00;100877.03;4983741;28;20662;-69
2022/07/10 02:25:27;;;;;;;4.20;1.77;;;;;;;14.46;100.00;100881.94;4987759;28;20204;-69
2022/07/10 02:27:53;;;;;;;8.10;2.20;;;;;;;14.58;100.00;100882.16;4969237;28;20673;-70
2022/07/10 02:30:18;;;;;;;4.03;1.83;;;;;;;14.45;100.00;100877.69;4954300;28;20552;-70
2022/07/10 02:32:43;;;;;;;3.47;1.97;;;;;;;14.37;100.00;100874.72;4970180;28;20610;-69
2022/07/10 02:35:09;;;;;;;9.50;2.00;;;;;;;14.35;100.00;100881.72;4960819;28;20184;-70
2022/07/10 02:37:34;;;;;;;10.40;2.17;;;;;;;14.29;100.00;100887.25;4973008;28;20191;-70
2022/07/10 02:39:59;;;;;;;5.53;1.80;;;;;;;14.18;100.00;100880.94;4972185;28;20577;-69
2022/07/10 02:42:25;;;;;;;5.67;1.67;;;;;;;14.17;100.00;100886.22;4961822;28;20230;-69
2022/07/10 02:44:50;;;;;;;5.53;2.07;;;;;;;14.01;100.00;100881.06;4972434;28;20671;-69
2022/07/10 02:47:15;;;;;;;4.90;2.00;;;;;;;14.15;100.00;100883.72;4974037;28;20263;-70
2022/07/10 02:49:41;;;;;;;3.53;1.80;;;;;;;14.11;100.00;100882.22;4976108;28;20188;-71
2022/07/10 02:52:06;;;;;;;2.80;1.80;;;;;;;14.08;100.00;100874.63;4981025;28;20219;-65
2022/07/10 02:54:31;;;;;;;4.47;1.87;;;;;;;14.17;100.00;100876.69;4983237;28;20291;-65
2022/07/10 02:56:57;;;;;;;5.83;2.07;;;;;;;14.15;100.00;100880.28;4974452;28;20192;-65
2022/07/10 02:59:22;;;;;;;2.50;1.83;;;;;;;14.33;100.00;100876.63;4983775;28;20195;-63
2022/07/10 03:01:47;;;;;;;4.00;2.30;;;;;;;14.24;100.00;100873.75;4958207;28;20314;-65
2022/07/10 03:04:12;;;;;;;4.07;2.13;;;;;;;14.26;100.00;100877.09;4973166;28;20703;-63
2022/07/10 03:06:38;;;;;;;4.43;1.80;;;;;;;14.19;100.00;100874.84;4990861;28;20546;-66
2022/07/10 03:09:03;;;;;;;3.17;2.00;;;;;;;14.10;100.00;100872.78;4990316;28;20661;-65
2022/07/10 03:11:28;;;;;;;4.07;1.93;;;;;;;14.02;100.00;100886.16;4981436;28;20231;-65
2022/07/10 03:13:54;;;;;;;3.47;2.00;;;;;;;13.84;100.00;100879.44;4989489;28;20192;-65
2022/07/10 03:16:19;;;;;;;8.13;2.40;;;;;;;13.85;100.00;100884.53;4992432;28;20312;-64
2022/07/10 03:18:45;;;;;;;4.97;2.00;;;;;;;13.81;100.00;100885.59;4995413;28;20537;-64
2022/07/10 03:21:10;;;;;;;3.40;1.77;;;;;;;13.85;100.00;100883.69;4975409;28;20228;-64
2022/07/10 03:23:36;;;;;;;5.17;2.00;;;;;;;13.71;100.00;100882.69;4986347;28;20191;-64
2022/07/10 03:26:01;;;;;;;4.17;1.80;;;;;;;13.81;100.00;100882.19;4975255;28;20208;-63
2022/07/10 03:28:26;;;;;;;7.43;2.67;;;;;;;13.71;100.00;100894.81;4964104;28;20235;-63
2022/07/10 03:30:51;;;;;;;4.67;2.10;;;;;;;13.69;100.00;100897.47;4951469;28;20417;-64
2022/07/10 03:33:17;;;;;;;4.57;2.07;;;;;;;13.66;100.00;100897.63;4984371;28;20177;-64
2022/07/10 03:35:42;;;;;;;5.10;2.10;;;;;;;13.57;100.00;100895.56;4968166;28;20665;-64
2022/07/10 03:38:07;;;;;;;6.17;2.33;;;;;;;13.57;100.00;100898.16;4975179;28;20190;-64
2022/07/10 03:40:33;;;;;;;5.03;1.90;;;;;;;13.70;100.00;100899.13;4969130;28;20325;-64
2022/07/10 03:42:58;;;;;;;3.20;1.67;;;;;;;13.67;99.77;100904.47;4986569;28;20191;-65
2022/07/10 03:45:24;;;;;;;5.57;1.70;;;;;;;13.52;100.00;100900.97;4973969;28;20200;-65
2022/07/10 03:47:49;;;;;;;3.43;1.50;;;;;;;13.44;100.00;100905.72;4975264;28;20200;-64
2022/07/10 03:50:14;;;;;;;4.00;1.90;;;;;;;13.43;100.00;100908.38;4966448;28;20172;-64
2022/07/10 03:52:40;;;;;;;3.70;1.70;;;;;;;13.48;100.00;100901.22;4988591;28;20611;-64
2022/07/10 03:55:06;;;;;;;6.10;1.67;;;;;;;13.38;100.00;100900.88;4970972;28;20276;-64
2022/07/10 04:00:15;;;;;;;5.30;2.03;;;;;;;13.23;100.00;100905.94;4952196;28;20267;-64
2022/07/10 04:02:40;;;;;;;2.87;1.90;;;;;;;13.16;100.00;100909.75;4988866;28;20615;-65
2022/07/10 04:05:07;;;;;;;4.73;1.63;;;;;;;13.27;100.00;100905.75;4973250;28;20223;-64
2022/07/10 04:07:33;;;;;;;6.37;1.77;;;;;;;13.34;100.00;100914.84;4990141;28;20559;-64
2022/07/10 04:09:58;;;;;;;4.07;1.53;;;;;;;13.40;100.00;100909.38;4974607;28;20196;-65
2022/07/10 04:12:24;;;;;;;4.33;1.80;;;;;;;13.42;100.00;100902.41;4979861;28;20228;-64
2022/07/10 04:14:51;;;;;;;4.07;1.90;;;;;;;13.39;100.00;100905.94;4990087;28;20183;-63
2022/07/10 04:17:17;;;;;;;6.73;1.77;;;;;;;13.35;100.00;100901.84;4974806;28;20522;-63
2022/07/10 04:19:42;;;;;;;2.80;1.57;;;;;;;13.36;100.00;100907.88;4974588;28;20244;-63
2022/07/10 04:22:07;;;;;;;6.27;1.70;;;;;;;13.46;97.42;100903.88;4979572;28;20558;-63
2022/07/10 04:24:33;;;;;;;3.63;1.70;;;;;;;13.40;98.06;100909.38;4968194;28;20525;-63
2022/07/10 04:26:58;;;;;;;6.23;1.60;;;;;;;13.44;96.63;100910.88;4969967;28;20247;-63
2022/07/10 04:29:23;;;;;;;6.20;1.80;;;;;;;13.58;95.59;100912.72;4974758;28;20710;-64
2022/07/10 04:31:48;;;;;;;5.10;1.93;;;;;;;13.62;94.44;100916.81;4977749;28;20258;-64
2022/07/10 04:34:14;;;;;;;4.03;1.60;;;;;;;13.70;94.06;100913.81;4973302;28;20191;-64
2022/07/10 04:36:39;;;;;;;4.47;1.47;;;;;;;13.65;94.18;100926.16;4974298;28;20524;-64
2022/07/10 04:39:04;;;;;;;4.80;1.60;;;;;;;13.66;93.59;100927.84;4974117;28;20214;-63
2022/07/10 04:41:30;;;;;;;3.50;1.43;;;;;;;13.60;93.56;100926.41;4975153;28;20783;-64
2022/07/10 04:43:55;;;;;;;5.53;1.53;;;;;;;13.65;93.60;100929.56;4978485;28;20270;-64
2022/07/10 04:46:20;;;;;;;2.87;1.67;;;;;;;13.76;93.31;100929.00;4988966;28;20677;-64
2022/07/10 04:48:46;;;;;;;3.43;1.50;;;;;;;13.76;93.39;100938.50;4974026;28;20216;-64
2022/07/10 04:51:11;;;;;;;5.50;2.10;;;;;;;13.80;92.82;100937.41;4964142;28;20241;-64
2022/07/10 04:53:36;;;;;;;4.63;1.30;;;;;;;13.79;92.15;100940.91;4969902;28;20185;-64
2022/07/10 04:56:02;;;;;;;3.23;1.60;;;;;;;14.02;91.14;100942.25;4967545;28;20200;-64
2022/07/10 04:58:28;;;;;;;5.13;1.70;;;;;;;14.07;88.88;100945.41;4974490;28;20286;-64
2022/07/10 05:00:53;;;;;;;3.73;1.23;;;;;;;14.11;89.14;100940.88;4970285;28;20247;-63
2022/07/10 05:03:19;;;;;;;2.37;1.60;;;;;;;14.11;88.97;100943.47;4982691;28;20187;-64
2022/07/10 05:05:44;;;;;;;2.13;1.20;;;;;;;14.14;88.94;100946.72;4973713;28;20625;-64
2022/07/10 05:08:10;;;;;;;3.17;1.73;;;;;;;14.07;88.35;100945.41;4973977;28;20176;-64
2022/07/10 05:10:35;;;;;;;5.73;1.87;;;;;;;14.15;86.82;100938.06;4967180;28;20227;-64
2022/07/10 05:13:01;;;;;;;5.00;1.40;;;;;;;14.31;86.21;100952.69;4985024;28;20270;-64
2022/07/10 05:15:26;;;;;;;5.30;1.60;;;;;;;14.40;84.88;100946.16;4974110;28;20188;-63
2022/07/10 05:17:51;;;;;;;4.13;1.40;;;;;;;14.44;84.92;100948.50;4988997;28;20189;-64
2022/07/10 05:20:17;;;;;;;5.40;1.90;;;;;;;14.48;84.43;100944.81;4964353;28;20191;-63
2022/07/10 05:22:42;;;;;;;3.80;1.47;;;;;;;14.55;84.59;100952.22;4975382;28;20603;-64
2022/07/10 05:25:07;;;;;;;5.60;2.00;;;;;;;14.66;81.93;100942.09;4964813;28;20201;-63
2022/07/10 05:27:33;;;;;;;4.70;1.63;;;;;;;14.88;80.05;100944.25;4988676;28;20176;-65
2022/07/10 05:29:58;;;;;;;6.10;1.53;;;;;;;15.13;80.54;100947.97;4973078;28;20662;-65
2022/07/10 05:32:25;;;;;;;5.70;1.90;;;;;;;15.27;76.77;100953.16;4978737;28;20310;-64
2022/07/10 05:34:51;;;;;;;6.40;1.57;;;;;;;15.49;75.43;100954.44;4959875;28;20701;-64
2022/07/10 05:37:17;;;;;;;8.80;1.93;;;;;;;15.65;73.04;100952.56;4980761;28;20231;-65
2022/07/10 05:39:43;;;;;;;4.23;1.30;;;;;;;15.73;72.25;100953.88;4969212;28;20227;-65
2022/07/10 05:42:08;;;;;;;3.50;1.37;;;;;;;15.67;73.42;100957.66;4961570;28;20263;-65
2022/07/10 05:44:33;;;;;;;2.90;1.60;;;;;;;15.78;71.43;100959.59;4982277;28;20230;-65
2022/07/10 05:46:59;;;;;;;6.37;1.37;;;;;;;15.80;72.23;100958.56;4972776;28;20261;-65
2022/07/10 05:49:25;;;;;;;4.10;1.50;;;;;;;15.93;71.74;100957.81;4967721;28;20199;-65
2022/07/10 05:51:50;;;;;;;1.97;1.43;;;;;;;16.20;69.56;100964.75;4975729;28;20226;-65
2022/07/10 05:54:15;;;;;;;3.63;1.83;;;;;;;16.24;67.74;100963.63;4971391;28;20260;-65
2022/07/10 05:56:40;;;;;;;4.87;1.67;;;;;;;15.89;67.34;100966.72;4987460;28;20188;-65
2022/07/10 05:59:06;;;;;;;3.40;1.13;;;;;;;15.86;68.57;100970.34;4972107;28;20299;-65
2022/07/10 06:01:31;;;;;;;3.10;1.30;;;;;;;16.06;66.04;100968.25;4972722;28;20219;-66
2022/07/10 06:03:56;;;;;;;4.60;1.27;;;;;;;16.24;65.21;100969.66;4976082;28;20259;-70
2022/07/10 06:06:22;;;;;;;6.00;1.40;;;;;;;16.34;63.74;100972.50;4971415;28;20199;-66
2022/07/10 06:08:47;;;;;;;4.70;1.50;;;;;;;16.40;63.03;100964.31;4971229;28;20184;-67
2022/07/10 06:11:13;;;;;;;3.67;1.10;;;;;;;16.74;59.66;100975.03;4969516;28;20274;-66
2022/07/10 06:13:38;;;;;;;4.53;1.30;;;;;;;17.15;55.63;100975.00;4972269;28;20671;-67
2022/07/10 06:16:04;;;;;;;3.40;1.50;;;;;;;16.92;56.85;100967.81;4976845;28;20275;-66
2022/07/10 06:18:31;;;;;;;3.57;1.40;;;;;;;17.07;56.75;100967.72;4970674;28;20176;-71
2022/07/10 06:20:56;;;;;;;4.50;1.60;;;;;;;16.71;58.10;100977.03;4957642;28;20219;-71
2022/07/10 06:23:21;;;;;;;3.93;1.53;;;;;;;16.95;58.78;100966.78;4977149;28;20182;-66
2022/07/10 06:25:49;;;;;;;3.80;1.33;;;;;;;17.49;55.86;100970.06;4976749;28;20200;-69
2022/07/10 06:28:14;;;;;;;3.87;1.50;;;;;;;17.87;52.74;100969.97;4979938;28;20525;-69
2022/07/10 06:30:39;;;;;;;3.00;1.20;;;;;;;18.10;50.92;100969.25;4977393;28;20239;-69
2022/07/10 06:33:05;;;;;;;3.93;1.47;;;;;;;18.10;48.71;100966.66;4980894;28;20189;-69
2022/07/10 06:35:30;;;;;;;3.77;1.57;;;;;;;17.95;49.82;100972.03;4967747;28;20635;-69
2022/07/10 06:37:55;;;;;;;2.50;1.40;;;;;;;17.40;50.71;100974.13;4991732;28;20230;-69
2022/07/10 06:40:21;;;;;;;5.17;1.60;;;;;;;17.38;50.11;100968.22;4967016;28;20202;-70
2022/07/10 06:42:47;;;;;;;3.40;1.10;;;;;;;17.48;49.42;100974.44;4975511;28;20183;-69
2022/07/10 06:45:13;;;;;;;4.60;1.00;;;;;;;17.87;49.11;100963.91;4976719;28;20569;-70
2022/07/10 06:50:32;;;;;;;4.00;1.47;;;;;;;19.96;42.97;100964.72;4969023;28;20282;-69
2022/07/10 06:52:58;;;;;;;4.93;1.20;;;;;;;19.28;43.70;100967.41;4987873;28;20195;-69
2022/07/10 06:55:25;;;;;;;4.60;1.33;;;;;;;18.57;44.36;100971.91;4962205;28;20184;-69
2022/07/10 06:57:50;;;;;;;3.87;1.60;;;;;;;17.09;47.33;100966.69;4976676;28;20184;-69
2022/07/10 07:00:15;;;;;;;1.67;1.10;;;;;;;17.54;48.23;100961.00;4953271;28;20219;-68
2022/07/10 07:02:41;;;;;;;6.27;1.47;;;;;;;18.39;45.53;100959.31;4982797;28;20188;-68
2022/07/10 07:05:07;;;;;;;3.03;1.07;;;;;;;19.01;42.64;100963.41;4972222;28;20244;-69
2022/07/10 07:07:34;;;;;;;3.53;1.60;;;;;;;18.51;44.54;100960.19;4976744;28;20194;-69
2022/07/10 07:09:59;;;;;;;3.63;1.00;;;;;;;18.16;44.35;100967.06;4990465;28;20542;-68
2022/07/10 07:12:24;;;;;;;3.93;1.27;;;;;;;18.15;44.35;100960.19;4981525;28;20223;-69
2022/07/10 07:14:50;;;;;;;1.80;0.87;;;;;;;17.09;46.82;100965.84;4974998;28;20214;-69
2022/07/10 07:17:21;;;;;;;4.17;1.13;;;;;;;16.56;48.69;100973.66;4973573;28;20219;-70
2022/07/10 07:25:15;;;;;;;5.60;1.70;;;;;;;17.69;45.55;100961.69;4976200;28;20602;-68
2022/07/10 07:27:41;;;;;;;3.30;1.10;;;;;;;18.25;45.87;100967.34;4976327;28;20176;-70
2022/07/10 07:30:11;;;;;;;2.43;1.00;;;;;;;17.94;43.77;100972.13;4954682;28;20635;-67
2022/07/10 07:32:37;;;;;;;2.13;1.17;;;;;;;18.16;44.07;100971.41;4973211;28;20196;-69
2022/07/10 07:35:04;;;;;;;2.57;1.00;;;;;;;18.32;43.63;100969.38;4963205;28;20223;-69
2022/07/10 07:37:36;;;;;;;3.53;1.00;;;;;;;17.62;44.25;100970.84;4990885;28;20276;-69
2022/07/10 07:40:01;;;;;;;5.50;1.50;;;;;;;17.12;45.92;100976.03;4973744;28;20619;-67
2022/07/10 07:42:27;;;;;;;3.07;0.77;;;;;;;17.17;45.55;100983.53;4980970;28;20219;-69
2022/07/10 07:44:52;;;;;;;3.00;1.00;;;;;;;17.39;45.20;100986.31;4974314;28;20204;-69
2022/07/10 07:47:17;;;;;;;2.43;1.03;;;;;;;18.27;43.94;100974.09;4974533;28;20180;-69
2022/07/10 07:49:42;;;;;;;3.67;1.10;;;;;;;17.34;44.00;100984.94;4973878;28;20701;-69
2022/07/10 07:52:08;;;;;;;1.23;0.70;;;;;;;17.03;45.82;100987.06;4966887;28;20227;-68
2022/07/10 07:54:33;;;;;;;2.97;1.20;;;;;;;16.68;45.23;100980.66;4975527;28;20321;-69
2022/07/10 07:56:58;;;;;;;3.47;1.07;;;;;;;17.04;46.22;100981.78;4974001;28;20176;-69
2022/07/10 07:59:24;;;;;;;2.43;1.00;;;;;;;18.27;42.95;100984.50;4973337;28;20319;-69
2022/07/10 08:01:49;;;;;;;5.13;1.47;;;;;;;18.14;42.91;100971.53;4967093;28;20581;-69
2022/07/10 08:04:14;;;;;;;3.10;1.27;;;;;;;18.18;43.04;100977.34;4976621;28;20236;-69
2022/07/10 08:06:39;;;;;;;3.33;1.10;;;;;;;19.14;40.20;100971.09;4975286;28;20678;-68
2022/07/10 08:09:05;;;;;;;3.97;0.90;;;;;;;18.56;41.04;100973.69;4973604;28;20211;-68
2022/07/10 08:11:31;;;;;;;5.60;1.07;;;;;;;20.99;37.21;100959.78;4976583;28;20520;-68
2022/07/10 08:13:56;;;;;;;3.63;1.17;;;;;;;23.26;32.79;100954.44;4975806;28;20191;-68
2022/07/10 08:16:22;;;;;;;3.93;0.90;;;;;;;22.85;33.24;100961.78;4967175;28;20196;-68
2022/07/10 08:18:47;;;;;;;2.27;1.30;;;;;;;22.23;35.16;100962.13;4974481;28;20659;-68
2022/07/10 08:21:12;;;;;;;3.20;1.00;;;;;;;24.07;32.20;100959.88;4963484;28;20235;-68
2022/07/10 08:23:38;;;;;;;3.17;1.20;;;;;;;24.15;32.10;100973.09;4984560;28;20263;-68
2022/07/10 08:26:03;;;;;;;2.33;0.90;;;;;;;24.47;31.50;100971.69;4975069;28;20582;-68
2022/07/10 08:28:29;;;;;;;4.15;1.00;;;;;;;25.58;30.04;100970.13;4974886;28;20677;-68
2022/07/10 08:30:54;;;;;;;3.05;0.98;;;;;;;26.16;28.83;100968.41;4970854;28;20219;-68
2022/07/10 08:33:20;;;;;;;3.15;0.82;;;;;;;25.38;29.70;100959.88;4967287;28;20271;-69
2022/07/10 08:35:46;;;;;;;3.30;1.33;;;;;;;23.52;32.51;100975.59;4967367;28;20196;-69
2022/07/10 08:38:12;;;;;;;3.22;1.02;;;;;;;21.73;36.13;100971.75;4972999;28;20662;-68
2022/07/10 08:40:38;;;;;;;3.27;1.10;;;;;;;22.85;35.06;100964.41;4966037;28;20235;-68
2022/07/10 08:43:05;;;;;;;2.93;1.17;;;;;;;22.99;35.17;100958.66;4984636;28;20184;-68
2022/07/10 08:45:33;;;;;;;2.27;1.10;;;;;;;23.53;33.11;100960.66;4972208;28;20699;-69
2022/07/10 08:48:02;;;;;;;4.20;1.10;;;;;;;22.78;34.39;100965.94;4974405;28;20188;-68
2022/07/10 08:50:30;;;;;;;2.03;1.10;;;;;;;24.10;33.29;100959.56;4967383;28;20223;-69
2022/07/10 08:53:04;;;;;;;2.38;1.17;;;;;;;25.31;30.70;100950.94;4986223;28;20200;-68
2022/07/10 08:55:29;;;;;;;2.95;1.38;;;;;;;24.04;33.01;100952.28;4973378;28;20188;-68
2022/07/10 08:57:55;;;;;;;1.95;1.20;;;;;;;22.84;34.75;100957.50;4965774;28;20189;-69
2022/07/10 09:00:22;;;;;;;3.83;1.40;;;;;;;23.84;33.44;100955.88;4964465;28;20566;-69
2022/07/10 09:02:47;;;;;;;3.13;1.60;;;;;;;23.97;32.87;100949.47;4986718;28;20682;-69
2022/07/10 09:05:12;;;;;;;4.85;1.60;;;;;;;25.57;31.48;100950.84;4972328;28;20306;-69
2022/07/10 09:07:41;;;;;;;5.40;1.52;;;;;;;25.39;30.83;100958.91;4974153;28;20184;-69
2022/07/10 09:10:08;;;;;;;2.75;1.30;;;;;;;24.32;32.69;100958.28;4978549;28;20192;-68
2022/07/10 09:12:55;;;;;;;3.35;1.23;;;;;;;24.06;33.41;100955.59;4983430;28;20184;-69
2022/07/10 09:15:23;;;;;;;4.82;1.50;;;;;;;25.36;31.64;100953.09;4970545;28;20187;-69
2022/07/10 09:17:53;;;;;;;4.40;1.08;;;;;;;26.30;29.82;100953.72;4988914;28;20188;-69
2022/07/10 09:20:38;;;;;;;5.30;1.15;;;;;;;26.27;29.28;100943.50;4965213;28;20180;-68
2022/07/10 09:23:22;;;;;;;4.40;1.50;;;;;;;25.26;30.30;100938.25;4984317;28;20194;-69
2022/07/10 09:25:49;;;;;;;4.55;1.33;;;;;;;24.47;32.39;100934.88;4973760;28;20203;-68
2022/07/10 09:28:24;;;;;;;2.47;1.10;;;;;;;23.91;32.51;100948.22;4973743;28;20198;-70
2022/07/10 09:30:50;;;;;;;3.28;1.00;;;;;;;23.62;33.57;100935.31;4965034;28;20588;-69
2022/07/10 09:33:35;;;;;;;4.95;1.45;;;;;;;22.66;34.98;100946.91;4982712;28;20239;-69
2022/07/10 09:36:18;;;;;;;3.70;1.63;;;;;;;22.43;35.58;100934.13;4968235;28;20188;-68
2022/07/10 09:38:43;;;;;;;2.43;1.30;;;;;;;22.98;35.56;100941.28;4971825;28;20654;-68
2022/07/10 09:41:14;;;;;;;4.55;1.33;;;;;;;25.54;31.64;100937.19;4965383;28;20329;-68
2022/07/10 09:43:50;;;;;;;4.38;1.50;;;;;;;25.51;30.89;100940.16;4979274;28;20637;-70
2022/07/10 09:46:17;;;;;;;3.83;1.17;;;;;;;24.78;31.86;100935.28;4974054;28;20207;-69
2022/07/10 09:48:42;;;;;;;4.13;1.20;;;;;;;23.40;33.93;100939.19;4985663;28;20191;-69
2022/07/10 09:51:10;;;;;;;6.35;1.65;;;;;;;22.06;36.81;100929.59;4981425;28;20292;-69
2022/07/10 09:53:43;;;;;;;3.00;1.23;;;;;;;22.74;35.38;100926.06;4987950;28;20190;-69
2022/07/10 09:56:12;;;;;;;6.93;1.17;;;;;;;23.73;34.06;100934.25;4972729;28;20175;-69
2022/07/10 09:58:39;;;;;;;3.73;1.30;;;;;;;26.88;30.45;100924.63;4971573;28;20270;-69
2022/07/10 10:01:06;;;;;;;3.40;1.45;;;;;;;26.50;30.24;100927.81;4971166;28;20223;-69
2022/07/10 10:03:35;;;;;;;3.28;1.17;;;;;;;25.18;31.83;100934.75;4971813;28;20639;-69
2022/07/10 10:06:07;;;;;;;3.17;1.17;;;;;;;23.92;33.18;100931.50;4971317;28;20236;-68
2022/07/10 10:09:02;;;;;;;3.95;1.50;;;;;;;25.03;32.51;100932.75;4968579;28;20287;-68
2022/07/10 10:11:31;;;;;;;2.50;1.55;;;;;;;25.01;32.49;100928.63;4956173;28;20247;-69
2022/07/10 10:13:58;;;;;;;3.53;1.45;;;;;;;25.63;30.73;100925.69;4976172;28;20184;-69
2022/07/10 10:16:25;;;;;;;3.72;1.08;;;;;;;24.12;32.69;100919.03;4973552;28;20187;-69
2022/07/10 10:21:36;;;;;;;1.60;0.90;;;;;;;22.94;35.66;100913.69;4974931;28;20258;-70
2022/07/10 10:24:03;;;;;;;6.07;1.30;;;;;;;22.83;36.16;100914.69;4987646;28;20211;-66
2022/07/10 10:26:29;;;;;;;3.80;1.57;;;;;;;22.85;36.18;100910.13;4973153;28;20208;-68
2022/07/10 10:28:57;;;;;;;4.43;1.60;;;;;;;22.89;36.25;100911.50;4972476;28;20589;-68
2022/07/10 10:31:24;;;;;;;6.00;1.60;;;;;;;22.90;35.81;100907.09;4973342;28;20231;-69
2022/07/10 10:33:53;;;;;;;3.73;1.27;;;;;;;21.85;36.62;100911.41;4967685;28;20181;-69
2022/07/10 10:36:41;;;;;;;4.10;1.30;;;;;;;21.85;37.42;100904.38;4970002;28;20211;-70
2022/07/10 10:39:13;;;;;;;4.67;1.70;;;;;;;22.92;35.03;100894.63;4971435;28;20180;-70
2022/07/10 10:41:42;;;;;;;1.93;0.70;;;;;;;24.32;32.48;100900.44;4964649;28;20219;-69
2022/07/10 10:44:15;;;;;;;3.60;1.20;;;;;;;24.95;30.87;100886.16;4971394;28;20184;-69
2022/07/10 10:46:50;;;;;;;2.80;1.15;;;;;;;25.36;31.66;100898.59;4973039;28;20240;-69
2022/07/10 10:49:16;;;;;;;2.97;1.13;;;;;;;25.39;30.02;100898.34;4972937;28;20191;-69
2022/07/10 10:52:02;;;;;;;3.63;1.00;;;;;;;24.59;32.29;100888.91;4950832;28;20278;-69
2022/07/10 10:54:28;;;;;;;5.60;1.30;;;;;;;24.96;32.13;100892.25;4972919;28;20204;-69
2022/07/10 10:57:15;;;;;;;4.32;1.23;;;;;;;23.82;34.23;100897.41;4971651;28;20184;-70
2022/07/10 10:59:51;;;;;;;5.15;1.20;;;;;;;22.99;36.00;100894.91;4971011;28;20305;-67
2022/07/10 11:02:32;;;;;;;2.83;1.02;;;;;;;22.86;36.32;100898.69;4963094;28;20702;-68
2022/07/10 11:05:14;;;;;;;4.00;1.00;;;;;;;22.66;35.99;100897.94;4972292;28;20319;-68
2022/07/10 11:07:55;;;;;;;3.70;1.30;;;;;;;21.99;36.88;100886.59;4974290;28;20292;-68
2022/07/10 11:10:43;;;;;;;3.37;1.40;;;;;;;22.26;36.37;100883.22;4966723;28;20187;-68
2022/07/10 11:13:18;;;;;;;3.20;1.40;;;;;;;22.34;36.00;100882.53;4974911;28;20196;-69
2022/07/10 11:15:46;;;;;;;3.83;1.70;;;;;;;22.80;35.61;100880.91;4984363;28;20222;-69
2022/07/10 11:18:13;;;;;;;5.93;1.37;;;;;;;22.67;36.02;100891.69;4974863;28;20207;-68
2022/07/10 11:20:42;;;;;;;2.67;1.30;;;;;;;22.28;36.11;100881.31;4966672;28;20223;-68
2022/07/10 11:23:29;;;;;;;4.00;1.73;;;;;;;22.02;36.05;100881.91;4974892;28;20184;-69
2022/07/10 11:26:09;;;;;;;2.60;1.43;;;;;;;21.44;37.32;100880.06;4976078;28;20204;-69
2022/07/10 11:29:04;;;;;;;3.80;1.70;;;;;;;20.93;38.13;100884.47;4990440;28;20631;-68
2022/07/10 11:31:34;;;;;;;5.23;1.87;;;;;;;21.46;38.10;100870.28;4956041;28;20231;-69
2022/07/10 11:33:59;;;;;;;2.50;1.17;;;;;;;22.06;37.09;100870.16;4962527;28;20184;-68
2022/07/10 11:36:28;;;;;;;2.57;1.30;;;;;;;22.58;36.23;100868.97;4956641;28;20177;-68
2022/07/10 11:38:59;;;;;;;3.03;1.50;;;;;;;22.65;35.86;100870.06;4951528;28;20223;-68